sensor_id;sensor_type;location;lat;lon;timestamp;P1;durP1;ratioP1;P2;durP2;ratioP2
21034;SDS011;10676;50.848;3.272;2023-03-22T00:00:46;33.55;;;18.73;;
21034;SDS011;10676;50.848;3.272;2023-03-22T00:03:11;27.75;;;18.73;;
21034;SDS011;10676;50.848;3.272;2023-03-22T00:05:37;27.17;;;19.10;;
21034;SDS011;10676;50.848;3.272;2023-03-22T00:08:04;27.95;;;19.67;;
21034;SDS011;10676;50.848;3.272;2023-03-22T00:10:31;27.30;;;18.27;;
21034;SDS011;10676;50.848;3.272;2023-03-22T00:12:58;25.40;;;18.52;;
21034;SDS011;10676;50.848;3.272;2023-03-22T00:15:24;28.50;;;18.90;;
21034;SDS011;10676;50.848;3.272;2023-03-22T00:17:50;25.63;;;18.75;;
21034;SDS011;10676;50.848;3.272;2023-03-22T00:20:16;28.85;;;19.13;;
21034;SDS011;10676;50.848;3.272;2023-03-22T00:22:44;30.10;;;19.55;;
21034;SDS011;10676;50.848;3.272;2023-03-22T00:25:10;30.27;;;19.35;;
21034;SDS011;10676;50.848;3.272;2023-03-22T00:27:36;29.73;;;18.75;;
21034;SDS011;10676;50.848;3.272;2023-03-22T00:30:03;25.13;;;17.65;;
21034;SDS011;10676;50.848;3.272;2023-03-22T00:32:32;26.20;;;19.08;;
21034;SDS011;10676;50.848;3.272;2023-03-22T00:34:58;24.48;;;18.98;;
21034;SDS011;10676;50.848;3.272;2023-03-22T00:37:25;25.80;;;17.63;;
21034;SDS011;10676;50.848;3.272;2023-03-22T00:39:57;24.02;;;16.15;;
21034;SDS011;10676;50.848;3.272;2023-03-22T00:42:27;22.27;;;16.90;;
21034;SDS011;10676;50.848;3.272;2023-03-22T00:44:53;27.50;;;17.65;;
21034;SDS011;10676;50.848;3.272;2023-03-22T00:47:18;20.83;;;16.95;;
21034;SDS011;10676;50.848;3.272;2023-03-22T00:49:44;22.85;;;17.80;;
21034;SDS011;10676;50.848;3.272;2023-03-22T00:52:09;23.25;;;16.90;;
21034;SDS011;10676;50.848;3.272;2023-03-22T00:54:35;19.83;;;17.63;;
21034;SDS011;10676;50.848;3.272;2023-03-22T00:57:01;23.23;;;16.75;;
21034;SDS011;10676;50.848;3.272;2023-03-22T00:59:26;22.73;;;16.00;;
21034;SDS011;10676;50.848;3.272;2023-03-22T01:01:52;16.75;;;14.07;;
21034;SDS011;10676;50.848;3.272;2023-03-22T01:04:19;19.70;;;13.38;;
21034;SDS011;10676;50.848;3.272;2023-03-22T01:06:50;14.63;;;13.00;;
21034;SDS011;10676;50.848;3.272;2023-03-22T01:09:23;17.92;;;12.82;;
21034;SDS011;10676;50.848;3.272;2023-03-22T01:11:52;14.25;;;12.35;;
21034;SDS011;10676;50.848;3.272;2023-03-22T01:14:18;17.58;;;12.73;;
21034;SDS011;10676;50.848;3.272;2023-03-22T01:16:44;16.45;;;11.50;;
21034;SDS011;10676;50.848;3.272;2023-03-22T01:19:10;17.35;;;12.02;;
21034;SDS011;10676;50.848;3.272;2023-03-22T01:21:35;17.30;;;12.73;;
21034;SDS011;10676;50.848;3.272;2023-03-22T01:24:01;20.42;;;13.27;;
21034;SDS011;10676;50.848;3.272;2023-03-22T01:26:26;17.98;;;12.00;;
21034;SDS011;10676;50.848;3.272;2023-03-22T01:28:52;16.00;;;10.00;;
21034;SDS011;10676;50.848;3.272;2023-03-22T01:31:18;13.45;;;10.20;;
21034;SDS011;10676;50.848;3.272;2023-03-22T01:33:43;14.85;;;10.95;;
21034;SDS011;10676;50.848;3.272;2023-03-22T01:36:09;14.65;;;10.00;;
21034;SDS011;10676;50.848;3.272;2023-03-22T01:38:35;14.20;;;9.85;;
21034;SDS011;10676;50.848;3.272;2023-03-22T01:41:00;14.70;;;9.43;;
21034;SDS011;10676;50.848;3.272;2023-03-22T01:43:26;15.18;;;9.73;;
21034;SDS011;10676;50.848;3.272;2023-03-22T01:45:52;9.45;;;8.18;;
21034;SDS011;10676;50.848;3.272;2023-03-22T01:53:32;13.30;;;9.10;;
21034;SDS011;10676;50.848;3.272;2023-03-22T01:56:00;11.60;;;8.70;;
21034;SDS011;10676;50.848;3.272;2023-03-22T01:58:27;16.25;;;8.73;;
21034;SDS011;10676;50.848;3.272;2023-03-22T02:00:53;11.57;;;8.18;;
21034;SDS011;10676;50.848;3.272;2023-03-22T02:03:21;10.43;;;7.97;;
21034;SDS011;10676;50.848;3.272;2023-03-22T02:05:56;13.65;;;9.38;;
21034;SDS011;10676;50.848;3.272;2023-03-22T02:08:22;13.90;;;8.73;;
21034;SDS011;10676;50.848;3.272;2023-03-22T02:10:47;11.90;;;9.68;;
21034;SDS011;10676;50.848;3.272;2023-03-22T02:18:41;10.75;;;8.20;;
21034;SDS011;10676;50.848;3.272;2023-03-22T02:21:25;14.13;;;8.52;;
21034;SDS011;10676;50.848;3.272;2023-03-22T02:24:23;9.73;;;8.82;;
21034;SDS011;10676;50.848;3.272;2023-03-22T02:40:57;10.77;;;9.63;;
21034;SDS011;10676;50.848;3.272;2023-03-22T02:43:41;13.32;;;9.43;;
21034;SDS011;10676;50.848;3.272;2023-03-22T02:47:14;11.80;;;8.18;;
21034;SDS011;10676;50.848;3.272;2023-03-22T02:49:32;11.43;;;8.30;;
21034;SDS011;10676;50.848;3.272;2023-03-22T02:52:06;11.20;;;9.27;;
21034;SDS011;10676;50.848;3.272;2023-03-22T02:54:42;11.90;;;8.00;;
21034;SDS011;10676;50.848;3.272;2023-03-22T02:57:19;13.02;;;11.13;;
21034;SDS011;10676;50.848;3.272;2023-03-22T02:59:52;9.52;;;8.48;;
21034;SDS011;10676;50.848;3.272;2023-03-22T03:02:20;11.77;;;9.02;;
21034;SDS011;10676;50.848;3.272;2023-03-22T03:04:47;11.80;;;8.40;;
21034;SDS011;10676;50.848;3.272;2023-03-22T03:07:17;14.52;;;8.40;;
21034;SDS011;10676;50.848;3.272;2023-03-22T03:09:46;10.50;;;8.95;;
21034;SDS011;10676;50.848;3.272;2023-03-22T03:12:13;14.40;;;8.77;;
21034;SDS011;10676;50.848;3.272;2023-03-22T03:14:47;17.75;;;9.02;;
21034;SDS011;10676;50.848;3.272;2023-03-22T03:25:45;13.45;;;9.02;;
21034;SDS011;10676;50.848;3.272;2023-03-22T03:31:08;11.30;;;9.38;;
21034;SDS011;10676;50.848;3.272;2023-03-22T03:33:54;13.50;;;9.38;;
21034;SDS011;10676;50.848;3.272;2023-03-22T03:36:26;13.70;;;8.75;;
21034;SDS011;10676;50.848;3.272;2023-03-22T03:38:54;16.48;;;8.52;;
21034;SDS011;10676;50.848;3.272;2023-03-22T03:41:22;11.07;;;8.55;;
21034;SDS011;10676;50.848;3.272;2023-03-22T03:43:51;19.83;;;9.00;;
21034;SDS011;10676;50.848;3.272;2023-03-22T03:46:18;14.38;;;9.15;;
21034;SDS011;10676;50.848;3.272;2023-03-22T03:48:46;16.42;;;9.07;;
21034;SDS011;10676;50.848;3.272;2023-03-22T03:51:13;14.98;;;8.32;;
21034;SDS011;10676;50.848;3.272;2023-03-22T03:53:39;16.63;;;9.13;;
21034;SDS011;10676;50.848;3.272;2023-03-22T03:56:05;16.10;;;8.43;;
21034;SDS011;10676;50.848;3.272;2023-03-22T03:58:31;13.77;;;8.68;;
21034;SDS011;10676;50.848;3.272;2023-03-22T04:00:56;15.25;;;9.07;;
21034;SDS011;10676;50.848;3.272;2023-03-22T04:03:22;18.60;;;8.95;;
21034;SDS011;10676;50.848;3.272;2023-03-22T04:05:48;11.55;;;8.10;;
21034;SDS011;10676;50.848;3.272;2023-03-22T04:08:13;11.27;;;8.93;;
21034;SDS011;10676;50.848;3.272;2023-03-22T04:10:39;15.55;;;8.57;;
21034;SDS011;10676;50.848;3.272;2023-03-22T04:13:05;11.73;;;8.02;;
21034;SDS011;10676;50.848;3.272;2023-03-22T04:15:30;15.98;;;8.40;;
21034;SDS011;10676;50.848;3.272;2023-03-22T04:17:56;13.63;;;8.45;;
21034;SDS011;10676;50.848;3.272;2023-03-22T04:20:23;12.18;;;8.73;;
21034;SDS011;10676;50.848;3.272;2023-03-22T04:22:50;11.25;;;7.93;;
21034;SDS011;10676;50.848;3.272;2023-03-22T04:25:16;12.38;;;9.07;;
21034;SDS011;10676;50.848;3.272;2023-03-22T04:27:43;14.95;;;8.65;;
21034;SDS011;10676;50.848;3.272;2023-03-22T04:30:11;15.60;;;8.70;;
21034;SDS011;10676;50.848;3.272;2023-03-22T04:32:46;11.65;;;9.05;;
21034;SDS011;10676;50.848;3.272;2023-03-22T04:35:12;15.57;;;9.05;;
21034;SDS011;10676;50.848;3.272;2023-03-22T04:37:39;9.75;;;8.38;;
21034;SDS011;10676;50.848;3.272;2023-03-22T04:40:05;11.63;;;8.32;;
21034;SDS011;10676;50.848;3.272;2023-03-22T04:42:32;13.38;;;9.20;;
21034;SDS011;10676;50.848;3.272;2023-03-22T04:44:58;14.88;;;8.27;;
21034;SDS011;10676;50.848;3.272;2023-03-22T04:47:24;12.30;;;8.10;;
21034;SDS011;10676;50.848;3.272;2023-03-22T04:49:50;12.75;;;8.52;;
21034;SDS011;10676;50.848;3.272;2023-03-22T04:52:16;12.38;;;8.07;;
21034;SDS011;10676;50.848;3.272;2023-03-22T04:54:41;9.10;;;8.20;;
21034;SDS011;10676;50.848;3.272;2023-03-22T04:57:07;13.70;;;7.95;;
21034;SDS011;10676;50.848;3.272;2023-03-22T04:59:33;13.77;;;8.02;;
21034;SDS011;10676;50.848;3.272;2023-03-22T05:01:59;12.13;;;8.68;;
21034;SDS011;10676;50.848;3.272;2023-03-22T05:04:25;14.20;;;8.18;;
21034;SDS011;10676;50.848;3.272;2023-03-22T05:06:51;15.48;;;8.60;;
21034;SDS011;10676;50.848;3.272;2023-03-22T05:09:18;14.13;;;8.65;;
21034;SDS011;10676;50.848;3.272;2023-03-22T05:11:44;12.63;;;8.02;;
21034;SDS011;10676;50.848;3.272;2023-03-22T05:14:10;13.88;;;7.78;;
21034;SDS011;10676;50.848;3.272;2023-03-22T05:16:35;15.60;;;8.05;;
21034;SDS011;10676;50.848;3.272;2023-03-22T05:19:04;10.05;;;9.02;;
21034;SDS011;10676;50.848;3.272;2023-03-22T05:21:38;11.88;;;8.43;;
21034;SDS011;10676;50.848;3.272;2023-03-22T05:24:05;14.82;;;9.02;;
21034;SDS011;10676;50.848;3.272;2023-03-22T05:26:31;12.05;;;8.93;;
21034;SDS011;10676;50.848;3.272;2023-03-22T05:28:57;13.82;;;8.63;;
21034;SDS011;10676;50.848;3.272;2023-03-22T05:31:23;11.35;;;8.85;;
21034;SDS011;10676;50.848;3.272;2023-03-22T05:33:52;14.52;;;8.43;;
21034;SDS011;10676;50.848;3.272;2023-03-22T05:36:18;11.18;;;9.23;;
21034;SDS011;10676;50.848;3.272;2023-03-22T05:38:45;13.10;;;8.68;;
21034;SDS011;10676;50.848;3.272;2023-03-22T05:41:11;15.95;;;8.82;;
21034;SDS011;10676;50.848;3.272;2023-03-22T05:43:37;14.98;;;8.35;;
21034;SDS011;10676;50.848;3.272;2023-03-22T05:46:04;17.27;;;9.15;;
21034;SDS011;10676;50.848;3.272;2023-03-22T05:48:31;14.07;;;8.43;;
21034;SDS011;10676;50.848;3.272;2023-03-22T05:50:58;11.80;;;8.45;;
21034;SDS011;10676;50.848;3.272;2023-03-22T05:53:24;15.70;;;8.93;;
21034;SDS011;10676;50.848;3.272;2023-03-22T05:55:50;20.52;;;8.82;;
21034;SDS011;10676;50.848;3.272;2023-03-22T05:58:17;10.98;;;8.68;;
21034;SDS011;10676;50.848;3.272;2023-03-22T06:00:43;14.18;;;8.70;;
21034;SDS011;10676;50.848;3.272;2023-03-22T06:03:09;15.73;;;9.05;;
21034;SDS011;10676;50.848;3.272;2023-03-22T06:05:35;16.80;;;9.73;;
21034;SDS011;10676;50.848;3.272;2023-03-22T06:08:01;11.02;;;9.23;;
21034;SDS011;10676;50.848;3.272;2023-03-22T06:10:27;17.45;;;9.45;;
21034;SDS011;10676;50.848;3.272;2023-03-22T06:12:53;13.60;;;8.73;;
21034;SDS011;10676;50.848;3.272;2023-03-22T06:15:18;13.05;;;9.13;;
21034;SDS011;10676;50.848;3.272;2023-03-22T06:17:44;11.45;;;8.80;;
21034;SDS011;10676;50.848;3.272;2023-03-22T06:20:10;11.00;;;8.88;;
21034;SDS011;10676;50.848;3.272;2023-03-22T06:22:38;11.57;;;8.85;;
21034;SDS011;10676;50.848;3.272;2023-03-22T06:25:05;11.23;;;8.30;;
21034;SDS011;10676;50.848;3.272;2023-03-22T06:27:32;10.05;;;8.40;;
21034;SDS011;10676;50.848;3.272;2023-03-22T06:29:57;11.27;;;8.38;;
21034;SDS011;10676;50.848;3.272;2023-03-22T06:32:23;13.75;;;7.93;;
21034;SDS011;10676;50.848;3.272;2023-03-22T06:34:51;11.70;;;9.05;;
21034;SDS011;10676;50.848;3.272;2023-03-22T06:37:17;15.20;;;7.97;;
21034;SDS011;10676;50.848;3.272;2023-03-22T06:39:43;14.98;;;10.32;;
21034;SDS011;10676;50.848;3.272;2023-03-22T06:42:08;10.02;;;8.60;;
21034;SDS011;10676;50.848;3.272;2023-03-22T06:44:34;17.33;;;8.50;;
21034;SDS011;10676;50.848;3.272;2023-03-22T06:47:00;13.93;;;12.05;;
21034;SDS011;10676;50.848;3.272;2023-03-22T06:49:26;14.93;;;8.82;;
21034;SDS011;10676;50.848;3.272;2023-03-22T06:51:52;17.27;;;12.05;;
21034;SDS011;10676;50.848;3.272;2023-03-22T06:54:18;13.63;;;10.07;;
21034;SDS011;10676;50.848;3.272;2023-03-22T06:56:45;16.48;;;9.30;;
21034;SDS011;10676;50.848;3.272;2023-03-22T06:59:11;10.82;;;7.50;;
21034;SDS011;10676;50.848;3.272;2023-03-22T07:01:36;12.23;;;9.02;;
21034;SDS011;10676;50.848;3.272;2023-03-22T07:04:02;15.70;;;8.10;;
21034;SDS011;10676;50.848;3.272;2023-03-22T07:06:28;16.30;;;9.00;;
21034;SDS011;10676;50.848;3.272;2023-03-22T07:08:54;10.90;;;7.90;;
21034;SDS011;10676;50.848;3.272;2023-03-22T07:11:20;12.93;;;8.52;;
21034;SDS011;10676;50.848;3.272;2023-03-22T07:13:46;10.98;;;7.95;;
21034;SDS011;10676;50.848;3.272;2023-03-22T07:16:11;15.73;;;8.10;;
21034;SDS011;10676;50.848;3.272;2023-03-22T07:18:37;17.08;;;7.78;;
21034;SDS011;10676;50.848;3.272;2023-03-22T07:21:03;15.40;;;8.40;;
21034;SDS011;10676;50.848;3.272;2023-03-22T07:23:29;15.75;;;8.25;;
21034;SDS011;10676;50.848;3.272;2023-03-22T07:25:54;14.57;;;8.68;;
21034;SDS011;10676;50.848;3.272;2023-03-22T07:28:20;11.07;;;8.77;;
21034;SDS011;10676;50.848;3.272;2023-03-22T07:30:46;19.65;;;9.38;;
21034;SDS011;10676;50.848;3.272;2023-03-22T07:33:12;14.75;;;12.35;;
21034;SDS011;10676;50.848;3.272;2023-03-22T07:35:38;22.38;;;10.07;;
21034;SDS011;10676;50.848;3.272;2023-03-22T07:38:04;13.60;;;9.55;;
21034;SDS011;10676;50.848;3.272;2023-03-22T07:40:30;14.82;;;8.32;;
21034;SDS011;10676;50.848;3.272;2023-03-22T07:42:56;17.05;;;10.27;;
21034;SDS011;10676;50.848;3.272;2023-03-22T07:45:23;14.63;;;11.25;;
21034;SDS011;10676;50.848;3.272;2023-03-22T07:47:49;12.63;;;8.80;;
21034;SDS011;10676;50.848;3.272;2023-03-22T07:50:15;16.38;;;8.45;;
21034;SDS011;10676;50.848;3.272;2023-03-22T07:52:41;15.00;;;9.18;;
21034;SDS011;10676;50.848;3.272;2023-03-22T07:55:09;11.45;;;8.68;;
21034;SDS011;10676;50.848;3.272;2023-03-22T07:57:36;15.73;;;8.65;;
21034;SDS011;10676;50.848;3.272;2023-03-22T08:00:02;15.32;;;8.88;;
21034;SDS011;10676;50.848;3.272;2023-03-22T08:02:30;19.75;;;8.98;;
21034;SDS011;10676;50.848;3.272;2023-03-22T08:04:56;12.93;;;9.25;;
21034;SDS011;10676;50.848;3.272;2023-03-22T08:07:22;16.77;;;8.90;;
21034;SDS011;10676;50.848;3.272;2023-03-22T08:09:51;13.98;;;8.65;;
21034;SDS011;10676;50.848;3.272;2023-03-22T08:12:17;13.68;;;8.73;;
21034;SDS011;10676;50.848;3.272;2023-03-22T08:14:43;12.70;;;8.63;;
21034;SDS011;10676;50.848;3.272;2023-03-22T08:17:15;11.18;;;7.80;;
21034;SDS011;10676;50.848;3.272;2023-03-22T08:19:41;16.10;;;8.55;;
21034;SDS011;10676;50.848;3.272;2023-03-22T08:22:07;17.02;;;8.57;;
21034;SDS011;10676;50.848;3.272;2023-03-22T08:24:32;14.68;;;7.85;;
21034;SDS011;10676;50.848;3.272;2023-03-22T08:26:58;8.40;;;7.47;;
21034;SDS011;10676;50.848;3.272;2023-03-22T08:29:24;11.68;;;8.02;;
21034;SDS011;10676;50.848;3.272;2023-03-22T08:31:50;11.00;;;8.13;;
21034;SDS011;10676;50.848;3.272;2023-03-22T08:34:15;10.30;;;7.47;;
21034;SDS011;10676;50.848;3.272;2023-03-22T08:36:41;12.10;;;7.30;;
21034;SDS011;10676;50.848;3.272;2023-03-22T08:39:07;10.68;;;7.53;;
21034;SDS011;10676;50.848;3.272;2023-03-22T08:41:33;9.38;;;6.65;;
21034;SDS011;10676;50.848;3.272;2023-03-22T08:43:59;12.43;;;7.78;;
21034;SDS011;10676;50.848;3.272;2023-03-22T08:46:25;13.27;;;8.18;;
21034;SDS011;10676;50.848;3.272;2023-03-22T08:48:51;14.20;;;7.10;;
21034;SDS011;10676;50.848;3.272;2023-03-22T08:51:17;11.93;;;6.93;;
21034;SDS011;10676;50.848;3.272;2023-03-22T08:53:45;13.07;;;6.95;;
21034;SDS011;10676;50.848;3.272;2023-03-22T08:56:11;13.73;;;7.03;;
21034;SDS011;10676;50.848;3.272;2023-03-22T08:58:48;10.10;;;7.95;;
21034;SDS011;10676;50.848;3.272;2023-03-22T09:01:15;13.57;;;6.15;;
21034;SDS011;10676;50.848;3.272;2023-03-22T09:03:42;10.75;;;7.05;;
21034;SDS011;10676;50.848;3.272;2023-03-22T09:06:08;11.15;;;6.68;;
21034;SDS011;10676;50.848;3.272;2023-03-22T09:08:35;12.13;;;6.28;;
21034;SDS011;10676;50.848;3.272;2023-03-22T09:11:01;12.15;;;7.15;;
21034;SDS011;10676;50.848;3.272;2023-03-22T09:13:27;10.15;;;6.95;;
21034;SDS011;10676;50.848;3.272;2023-03-22T09:15:54;11.10;;;7.07;;
21034;SDS011;10676;50.848;3.272;2023-03-22T09:18:20;13.10;;;7.88;;
21034;SDS011;10676;50.848;3.272;2023-03-22T09:20:48;11.27;;;7.82;;
21034;SDS011;10676;50.848;3.272;2023-03-22T09:23:14;11.32;;;6.43;;
21034;SDS011;10676;50.848;3.272;2023-03-22T09:25:43;10.30;;;6.82;;
21034;SDS011;10676;50.848;3.272;2023-03-22T09:28:12;11.98;;;7.25;;
21034;SDS011;10676;50.848;3.272;2023-03-22T09:30:38;10.95;;;7.38;;
21034;SDS011;10676;50.848;3.272;2023-03-22T09:33:04;10.77;;;7.07;;
21034;SDS011;10676;50.848;3.272;2023-03-22T09:35:30;14.05;;;7.50;;
21034;SDS011;10676;50.848;3.272;2023-03-22T09:37:56;9.63;;;7.70;;
21034;SDS011;10676;50.848;3.272;2023-03-22T09:40:30;10.70;;;6.75;;
21034;SDS011;10676;50.848;3.272;2023-03-22T09:43:01;15.48;;;6.82;;
21034;SDS011;10676;50.848;3.272;2023-03-22T09:45:42;9.00;;;6.75;;
21034;SDS011;10676;50.848;3.272;2023-03-22T09:48:13;12.32;;;7.55;;
21034;SDS011;10676;50.848;3.272;2023-03-22T09:50:46;8.57;;;6.15;;
21034;SDS011;10676;50.848;3.272;2023-03-22T09:53:14;8.02;;;7.22;;
21034;SDS011;10676;50.848;3.272;2023-03-22T09:55:46;10.80;;;7.90;;
21034;SDS011;10676;50.848;3.272;2023-03-22T10:06:40;12.95;;;9.07;;
21034;SDS011;10676;50.848;3.272;2023-03-22T10:09:21;12.23;;;8.32;;
21034;SDS011;10676;50.848;3.272;2023-03-22T10:12:04;18.25;;;7.28;;
21034;SDS011;10676;50.848;3.272;2023-03-22T10:14:49;11.27;;;8.07;;
21034;SDS011;10676;50.848;3.272;2023-03-22T10:17:24;15.82;;;6.85;;
21034;SDS011;10676;50.848;3.272;2023-03-22T10:22:46;12.52;;;6.40;;
21034;SDS011;10676;50.848;3.272;2023-03-22T10:25:15;12.13;;;6.68;;
21034;SDS011;10676;50.848;3.272;2023-03-22T10:27:43;7.10;;;4.93;;
21034;SDS011;10676;50.848;3.272;2023-03-22T10:30:22;7.88;;;5.95;;
21034;SDS011;10676;50.848;3.272;2023-03-22T10:33:00;11.20;;;6.55;;
21034;SDS011;10676;50.848;3.272;2023-03-22T10:35:27;8.32;;;6.50;;
21034;SDS011;10676;50.848;3.272;2023-03-22T10:37:55;10.57;;;8.90;;
21034;SDS011;10676;50.848;3.272;2023-03-22T10:40:25;10.68;;;6.53;;
21034;SDS011;10676;50.848;3.272;2023-03-22T10:43:03;8.93;;;8.25;;
21034;SDS011;10676;50.848;3.272;2023-03-22T10:45:35;8.13;;;6.78;;
21034;SDS011;10676;50.848;3.272;2023-03-22T10:48:03;8.00;;;6.30;;
21034;SDS011;10676;50.848;3.272;2023-03-22T10:50:41;9.32;;;8.35;;
21034;SDS011;10676;50.848;3.272;2023-03-22T10:53:14;8.85;;;7.95;;
21034;SDS011;10676;50.848;3.272;2023-03-22T10:56:01;10.48;;;8.13;;
21034;SDS011;10676;50.848;3.272;2023-03-22T10:58:28;7.07;;;6.47;;
21034;SDS011;10676;50.848;3.272;2023-03-22T11:00:56;9.65;;;7.15;;
21034;SDS011;10676;50.848;3.272;2023-03-22T11:06:04;9.52;;;8.77;;
21034;SDS011;10676;50.848;3.272;2023-03-22T11:11:15;9.50;;;7.88;;
21034;SDS011;10676;50.848;3.272;2023-03-22T11:13:48;10.60;;;7.20;;
21034;SDS011;10676;50.848;3.272;2023-03-22T11:16:17;8.55;;;7.45;;
21034;SDS011;10676;50.848;3.272;2023-03-22T11:18:44;11.38;;;10.23;;
21034;SDS011;10676;50.848;3.272;2023-03-22T11:21:10;8.05;;;7.28;;
21034;SDS011;10676;50.848;3.272;2023-03-22T11:23:40;8.75;;;7.68;;
21034;SDS011;10676;50.848;3.272;2023-03-22T11:26:12;7.03;;;6.63;;
21034;SDS011;10676;50.848;3.272;2023-03-22T11:28:49;8.52;;;7.40;;
21034;SDS011;10676;50.848;3.272;2023-03-22T11:31:15;8.32;;;7.45;;
21034;SDS011;10676;50.848;3.272;2023-03-22T11:33:56;8.20;;;7.45;;
21034;SDS011;10676;50.848;3.272;2023-03-22T11:36:24;10.85;;;8.25;;
21034;SDS011;10676;50.848;3.272;2023-03-22T11:39:00;7.95;;;7.28;;
21034;SDS011;10676;50.848;3.272;2023-03-22T11:41:34;9.10;;;8.13;;
21034;SDS011;10676;50.848;3.272;2023-03-22T11:44:04;9.52;;;8.60;;
21034;SDS011;10676;50.848;3.272;2023-03-22T11:46:38;9.07;;;8.23;;
21034;SDS011;10676;50.848;3.272;2023-03-22T11:49:12;10.07;;;9.20;;
21034;SDS011;10676;50.848;3.272;2023-03-22T11:51:41;9.20;;;8.57;;
21034;SDS011;10676;50.848;3.272;2023-03-22T11:54:08;9.75;;;8.77;;
21034;SDS011;10676;50.848;3.272;2023-03-22T11:56:44;8.40;;;7.80;;
21034;SDS011;10676;50.848;3.272;2023-03-22T11:59:16;8.40;;;6.97;;
21034;SDS011;10676;50.848;3.272;2023-03-22T12:05:30;8.10;;;7.43;;
21034;SDS011;10676;50.848;3.272;2023-03-22T12:08:01;8.23;;;7.38;;
21034;SDS011;10676;50.848;3.272;2023-03-22T12:10:40;8.48;;;6.78;;
21034;SDS011;10676;50.848;3.272;2023-03-22T12:15:43;9.40;;;8.10;;
21034;SDS011;10676;50.848;3.272;2023-03-22T12:18:18;9.07;;;8.13;;
21034;SDS011;10676;50.848;3.272;2023-03-22T12:20:55;8.95;;;8.25;;
21034;SDS011;10676;50.848;3.272;2023-03-22T12:23:27;10.15;;;7.75;;
21034;SDS011;10676;50.848;3.272;2023-03-22T12:25:56;8.20;;;7.45;;
21034;SDS011;10676;50.848;3.272;2023-03-22T12:28:31;10.45;;;7.75;;
21034;SDS011;10676;50.848;3.272;2023-03-22T12:31:02;9.02;;;8.15;;
21034;SDS011;10676;50.848;3.272;2023-03-22T12:33:34;9.07;;;8.05;;
21034;SDS011;10676;50.848;3.272;2023-03-22T12:36:09;8.75;;;7.72;;
21034;SDS011;10676;50.848;3.272;2023-03-22T12:38:45;9.50;;;8.55;;
21034;SDS011;10676;50.848;3.272;2023-03-22T12:41:23;10.75;;;8.88;;
21034;SDS011;10676;50.848;3.272;2023-03-22T12:46:42;10.13;;;8.32;;
21034;SDS011;10676;50.848;3.272;2023-03-22T12:54:55;9.73;;;8.77;;
21034;SDS011;10676;50.848;3.272;2023-03-22T12:57:23;9.73;;;8.82;;
21034;SDS011;10676;50.848;3.272;2023-03-22T12:59:50;9.55;;;8.20;;
21034;SDS011;10676;50.848;3.272;2023-03-22T13:04:55;9.02;;;8.30;;
21034;SDS011;10676;50.848;3.272;2023-03-22T13:07:34;10.13;;;9.15;;
21034;SDS011;10676;50.848;3.272;2023-03-22T13:19:15;9.13;;;8.05;;
21034;SDS011;10676;50.848;3.272;2023-03-22T13:21:20;8.85;;;8.15;;
21034;SDS011;10676;50.848;3.272;2023-03-22T13:26:41;9.02;;;8.23;;
21034;SDS011;10676;50.848;3.272;2023-03-22T13:31:44;10.50;;;9.15;;
21034;SDS011;10676;50.848;3.272;2023-03-22T13:34:18;8.88;;;8.02;;
21034;SDS011;10676;50.848;3.272;2023-03-22T13:36:50;10.02;;;7.75;;
21034;SDS011;10676;50.848;3.272;2023-03-22T13:39:18;8.35;;;7.63;;
21034;SDS011;10676;50.848;3.272;2023-03-22T13:41:58;8.23;;;7.43;;
21034;SDS011;10676;50.848;3.272;2023-03-22T13:44:34;10.23;;;7.63;;
21034;SDS011;10676;50.848;3.272;2023-03-22T13:47:02;9.27;;;7.57;;
21034;SDS011;10676;50.848;3.272;2023-03-22T13:49:45;13.60;;;7.05;;
21034;SDS011;10676;50.848;3.272;2023-03-22T13:53:18;7.97;;;6.95;;
21034;SDS011;10676;50.848;3.272;2023-03-22T14:01:04;10.43;;;7.53;;
21034;SDS011;10676;50.848;3.272;2023-03-22T14:03:39;10.90;;;8.32;;
21034;SDS011;10676;50.848;3.272;2023-03-22T14:06:15;8.00;;;7.22;;
21034;SDS011;10676;50.848;3.272;2023-03-22T14:08:46;8.50;;;7.55;;
21034;SDS011;10676;50.848;3.272;2023-03-22T14:13:46;9.98;;;7.72;;
21034;SDS011;10676;50.848;3.272;2023-03-22T14:18:52;11.77;;;8.90;;
21034;SDS011;10676;50.848;3.272;2023-03-22T14:21:20;10.13;;;8.48;;
21034;SDS011;10676;50.848;3.272;2023-03-22T14:23:53;8.57;;;7.75;;
21034;SDS011;10676;50.848;3.272;2023-03-22T14:26:24;10.50;;;8.60;;
21034;SDS011;10676;50.848;3.272;2023-03-22T14:32:01;13.90;;;8.48;;
21034;SDS011;10676;50.848;3.272;2023-03-22T14:34:30;9.27;;;8.10;;
21034;SDS011;10676;50.848;3.272;2023-03-22T14:36:59;11.05;;;8.45;;
21034;SDS011;10676;50.848;3.272;2023-03-22T14:39:37;15.27;;;8.52;;
21034;SDS011;10676;50.848;3.272;2023-03-22T14:44:57;12.80;;;8.40;;
21034;SDS011;10676;50.848;3.272;2023-03-22T14:47:26;9.50;;;8.50;;
21034;SDS011;10676;50.848;3.272;2023-03-22T14:49:57;11.02;;;9.43;;
21034;SDS011;10676;50.848;3.272;2023-03-22T14:52:28;12.65;;;9.88;;
21034;SDS011;10676;50.848;3.272;2023-03-22T14:54:57;10.85;;;9.68;;
21034;SDS011;10676;50.848;3.272;2023-03-22T14:57:28;12.93;;;9.68;;
21034;SDS011;10676;50.848;3.272;2023-03-22T14:59:56;12.52;;;8.80;;
21034;SDS011;10676;50.848;3.272;2023-03-22T15:02:32;11.55;;;8.57;;
21034;SDS011;10676;50.848;3.272;2023-03-22T15:05:08;15.43;;;9.05;;
21034;SDS011;10676;50.848;3.272;2023-03-22T15:07:48;12.75;;;9.88;;
21034;SDS011;10676;50.848;3.272;2023-03-22T15:10:21;15.93;;;9.65;;
21034;SDS011;10676;50.848;3.272;2023-03-22T15:12:51;16.50;;;9.65;;
21034;SDS011;10676;50.848;3.272;2023-03-22T15:15:20;14.07;;;10.13;;
21034;SDS011;10676;50.848;3.272;2023-03-22T15:17:47;11.13;;;10.07;;
21034;SDS011;10676;50.848;3.272;2023-03-22T15:20:15;13.38;;;9.68;;
21034;SDS011;10676;50.848;3.272;2023-03-22T15:22:50;16.23;;;10.73;;
21034;SDS011;10676;50.848;3.272;2023-03-22T15:25:17;12.32;;;11.13;;
21034;SDS011;10676;50.848;3.272;2023-03-22T15:27:44;12.63;;;10.93;;
21034;SDS011;10676;50.848;3.272;2023-03-22T15:30:10;14.07;;;11.95;;
21034;SDS011;10676;50.848;3.272;2023-03-22T15:32:43;15.10;;;10.85;;
21034;SDS011;10676;50.848;3.272;2023-03-22T15:35:13;15.52;;;11.10;;
21034;SDS011;10676;50.848;3.272;2023-03-22T15:37:40;15.68;;;12.32;;
21034;SDS011;10676;50.848;3.272;2023-03-22T15:40:44;13.65;;;11.38;;
21034;SDS011;10676;50.848;3.272;2023-03-22T15:43:20;14.98;;;11.77;;
21034;SDS011;10676;50.848;3.272;2023-03-22T15:51:17;15.13;;;10.88;;
21034;SDS011;10676;50.848;3.272;2023-03-22T15:53:44;15.98;;;11.77;;
21034;SDS011;10676;50.848;3.272;2023-03-22T15:56:30;16.42;;;11.13;;
21034;SDS011;10676;50.848;3.272;2023-03-22T15:59:01;16.75;;;12.25;;
21034;SDS011;10676;50.848;3.272;2023-03-22T16:01:33;13.52;;;12.00;;
21034;SDS011;10676;50.848;3.272;2023-03-22T16:04:10;15.10;;;11.05;;
21034;SDS011;10676;50.848;3.272;2023-03-22T16:06:45;15.80;;;11.18;;
21034;SDS011;10676;50.848;3.272;2023-03-22T16:09:11;15.23;;;10.63;;
21034;SDS011;10676;50.848;3.272;2023-03-22T16:11:36;18.20;;;11.65;;
21034;SDS011;10676;50.848;3.272;2023-03-22T16:14:02;15.43;;;11.20;;
21034;SDS011;10676;50.848;3.272;2023-03-22T16:16:28;19.75;;;11.32;;
21034;SDS011;10676;50.848;3.272;2023-03-22T16:18:54;19.52;;;11.60;;
21034;SDS011;10676;50.848;3.272;2023-03-22T16:21:24;13.60;;;11.13;;
21034;SDS011;10676;50.848;3.272;2023-03-22T16:23:55;16.85;;;11.50;;
21034;SDS011;10676;50.848;3.272;2023-03-22T16:26:24;13.50;;;10.52;;
21034;SDS011;10676;50.848;3.272;2023-03-22T16:28:50;14.73;;;10.85;;
21034;SDS011;10676;50.848;3.272;2023-03-22T16:31:16;13.38;;;10.75;;